Time;durP1;ratioP1;P1;durP2;ratioP2;P2;SDS_P1;SDS_P2;PMS_P1;PMS_P2;Temp;Humidity;BMP_temperature;BMP_pressure;BME280_temperature;BME280_humidity;BME280_pressure;Samples;Min_cycle;Max_cycle;Signal;HPM_P1;HPM_P2
2022/03/05 00:00:46;;;;;;;1.95;1.25;;;1.90;99.90;;;;;;4437034;32;20064;-64
2022/03/05 00:03:12;;;;;;;0.75;0.75;;;1.90;99.90;;;;;;4434118;32;20447;-64
2022/03/05 00:05:38;;;;;;;0.98;0.98;;;2.00;99.90;;;;;;4435589;32;20069;-64
2022/03/05 00:08:04;;;;;;;0.60;0.60;;;1.90;99.90;;;;;;4421593;32;20088;-64
2022/03/05 00:10:30;;;;;;;1.75;1.20;;;1.70;99.90;;;;;;4432917;32;20081;-64
2022/03/05 00:12:56;;;;;;;1.12;1.10;;;1.60;99.90;;;;;;4438727;32;20427;-64
2022/03/05 00:15:24;;;;;;;0.60;0.60;;;1.50;99.90;;;;;;4417114;32;20070;-64
2022/03/05 00:17:49;;;;;;;0.70;0.70;;;1.60;99.90;;;;;;4427134;32;20089;-64
2022/03/05 00:20:16;;;;;;;0.60;0.60;;;1.50;99.90;;;;;;4435556;32;20057;-64
2022/03/05 00:22:42;;;;;;;0.65;0.65;;;1.40;99.90;;;;;;4430457;32;20093;-64
2022/03/05 00:25:07;;;;;;;1.87;1.35;;;1.40;99.90;;;;;;4440898;32;20065;-64
2022/03/05 00:27:33;;;;;;;0.60;0.60;;;1.30;99.90;;;;;;4432953;32;20085;-64
2022/03/05 00:29:58;;;;;;;1.17;0.93;;;1.20;99.90;;;;;;4435406;32;20104;-64
2022/03/05 00:32:24;;;;;;;1.12;1.05;;;1.10;99.90;;;;;;4440359;32;20520;-64
2022/03/05 00:34:50;;;;;;;0.75;0.75;;;1.10;99.90;;;;;;4427146;32;20073;-64
2022/03/05 00:37:15;;;;;;;4.03;1.67;;;1.20;99.90;;;;;;4436506;32;20112;-64
2022/03/05 00:39:41;;;;;;;0.82;0.82;;;1.30;99.90;;;;;;4435744;32;20139;-64
2022/03/05 00:42:07;;;;;;;1.20;1.08;;;1.20;99.90;;;;;;4437420;32;20060;-64
2022/03/05 00:44:32;;;;;;;0.70;0.70;;;1.10;99.90;;;;;;4433144;32;20135;-64
2022/03/05 00:46:58;;;;;;;2.15;1.75;;;1.00;99.90;;;;;;4438893;32;20082;-64
2022/03/05 00:49:24;;;;;;;1.55;0.82;;;1.00;99.90;;;;;;4441510;32;20087;-64
2022/03/05 00:51:52;;;;;;;0.68;0.68;;;1.00;99.90;;;;;;4414505;32;20080;-64
2022/03/05 00:54:18;;;;;;;0.80;0.80;;;1.00;99.90;;;;;;4426554;32;20378;-64
2022/03/05 00:56:43;;;;;;;0.50;0.50;;;1.10;99.90;;;;;;4440491;32;20149;-64
2022/03/05 00:59:08;;;;;;;1.10;0.95;;;1.10;99.90;;;;;;4433029;32;20073;-63
2022/03/05 01:01:34;;;;;;;0.60;0.60;;;1.20;99.90;;;;;;4438819;32;20449;-64
2022/03/05 01:03:59;;;;;;;1.08;1.02;;;1.10;99.90;;;;;;4433633;32;20093;-64
2022/03/05 01:06:27;;;;;;;2.08;1.40;;;1.00;99.90;;;;;;4441469;32;20189;-64
2022/03/05 01:08:52;;;;;;;0.90;0.88;;;1.00;99.90;;;;;;4438474;32;20651;-64
2022/03/05 01:11:18;;;;;;;0.50;0.50;;;1.00;99.90;;;;;;4438922;32;20159;-64
2022/03/05 01:13:44;;;;;;;1.52;1.20;;;1.00;99.90;;;;;;4439932;32;20082;-64
2022/03/05 01:16:10;;;;;;;0.40;0.40;;;1.20;99.90;;;;;;4428038;32;20199;-64
2022/03/05 01:18:35;;;;;;;0.60;0.60;;;1.20;99.90;;;;;;4436407;32;20530;-64
2022/03/05 01:21:02;;;;;;;0.50;0.50;;;1.30;99.90;;;;;;4440237;32;20460;-63
2022/03/05 01:23:27;;;;;;;0.43;0.43;;;1.20;99.90;;;;;;4441467;32;20116;-64
2022/03/05 01:25:53;;;;;;;0.77;0.77;;;1.20;99.90;;;;;;4441130;32;20517;-64
2022/03/05 01:28:18;;;;;;;3.90;1.77;;;1.20;99.90;;;;;;4441937;32;20077;-64
2022/03/05 01:30:44;;;;;;;0.68;0.68;;;1.20;99.90;;;;;;4440755;32;20536;-64
2022/03/05 01:33:09;;;;;;;1.02;0.98;;;1.20;99.90;;;;;;4437310;32;20105;-64
2022/03/05 01:35:35;;;;;;;0.40;0.40;;;1.10;99.90;;;;;;4436044;32;20509;-64
2022/03/05 01:38:00;;;;;;;13.05;1.42;;;1.10;99.90;;;;;;4435650;32;20093;-64
2022/03/05 01:40:26;;;;;;;0.52;0.52;;;1.10;99.90;;;;;;4441929;32;20131;-64
2022/03/05 01:42:52;;;;;;;1.00;0.93;;;1.10;99.90;;;;;;4433791;32;20395;-64
2022/03/05 01:45:17;;;;;;;0.62;0.62;;;1.10;99.90;;;;;;4437262;32;20500;-64
2022/03/05 01:47:45;;;;;;;0.70;0.70;;;1.10;99.90;;;;;;4439775;32;20065;-63
2022/03/05 01:50:12;;;;;;;0.82;0.75;;;1.10;99.90;;;;;;4440092;32;20567;-63
2022/03/05 01:52:37;;;;;;;0.45;0.45;;;1.10;99.90;;;;;;4442410;32;20072;-63
2022/03/05 01:55:04;;;;;;;1.02;0.93;;;1.00;99.90;;;;;;4439845;32;20625;-64
2022/03/05 01:57:29;;;;;;;0.40;0.40;;;1.10;99.90;;;;;;4441927;32;20112;-63
2022/03/05 01:59:55;;;;;;;0.50;0.50;;;1.10;99.90;;;;;;4443819;32;20076;-64
2022/03/05 02:02:20;;;;;;;1.25;1.15;;;1.20;99.90;;;;;;4441888;32;20219;-64
2022/03/05 02:04:46;;;;;;;0.60;0.60;;;1.10;99.90;;;;;;4436994;32;20109;-63
2022/03/05 02:07:11;;;;;;;0.82;0.82;;;1.00;99.90;;;;;;4439529;32;20073;-63
2022/03/05 02:09:37;;;;;;;1.20;0.93;;;0.90;99.90;;;;;;4440533;32;20085;-63
2022/03/05 02:12:03;;;;;;;0.60;0.60;;;0.90;99.90;;;;;;4440912;32;20481;-63
2022/03/05 02:14:29;;;;;;;0.73;0.73;;;0.90;99.90;;;;;;4437809;32;20378;-63
2022/03/05 02:16:55;;;;;;;1.55;1.30;;;0.80;99.90;;;;;;4431803;32;20137;-63
2022/03/05 02:19:21;;;;;;;1.00;1.00;;;0.80;99.90;;;;;;4429889;32;20088;-63
2022/03/05 02:21:47;;;;;;;1.27;1.15;;;0.80;99.90;;;;;;4441012;32;20133;-63
2022/03/05 02:24:13;;;;;;;2.25;1.25;;;0.80;99.90;;;;;;4440053;32;20146;-63
2022/03/05 02:26:38;;;;;;;0.40;0.40;;;0.80;99.90;;;;;;4426903;32;20510;-62
2022/03/05 02:29:04;;;;;;;0.45;0.45;;;0.80;99.90;;;;;;4432869;32;20509;-64
2022/03/05 02:31:29;;;;;;;0.57;0.57;;;0.70;99.90;;;;;;4431506;32;20112;-63
2022/03/05 02:33:55;;;;;;;1.30;1.20;;;0.70;99.90;;;;;;4430500;32;20066;-63
2022/03/05 02:36:23;;;;;;;0.70;0.70;;;0.80;99.90;;;;;;4427480;32;20158;-63
2022/03/05 02:38:49;;;;;;;0.70;0.70;;;0.70;99.90;;;;;;4424281;32;20520;-63
2022/03/05 02:41:16;;;;;;;0.47;0.47;;;0.80;99.90;;;;;;4422898;32;20133;-63
2022/03/05 02:43:42;;;;;;;0.70;0.70;;;0.70;99.90;;;;;;4428409;32;20159;-64
2022/03/05 02:46:07;;;;;;;0.65;0.65;;;0.80;99.90;;;;;;4437809;32;20065;-64
2022/03/05 02:48:33;;;;;;;2.28;1.62;;;0.70;99.90;;;;;;4426309;32;20064;-63
2022/03/05 02:50:59;;;;;;;0.50;0.50;;;0.60;99.90;;;;;;4440427;32;20513;-63
2022/03/05 02:53:24;;;;;;;0.40;0.40;;;0.70;99.90;;;;;;4440400;32;20134;-63
2022/03/05 02:55:50;;;;;;;0.85;0.85;;;0.70;99.90;;;;;;4436376;32;20188;-63
2022/03/05 02:58:15;;;;;;;2.10;1.00;;;0.70;99.90;;;;;;4434177;32;20239;-63
2022/03/05 03:00:41;;;;;;;0.50;0.50;;;0.70;99.90;;;;;;4437461;32;20438;-64
2022/03/05 03:03:07;;;;;;;6.45;2.95;;;0.60;99.90;;;;;;4443824;32;20073;-63
2022/03/05 03:05:32;;;;;;;2.30;0.88;;;0.60;99.90;;;;;;4443568;32;20140;-64
2022/03/05 03:07:58;;;;;;;0.50;0.50;;;0.60;99.90;;;;;;4442330;32;20061;-63
2022/03/05 03:10:23;;;;;;;0.50;0.50;;;0.60;99.90;;;;;;4443058;32;20406;-63
2022/03/05 03:12:49;;;;;;;0.65;0.65;;;0.60;99.90;;;;;;4429071;32;20069;-63
2022/03/05 03:15:15;;;;;;;0.47;0.47;;;0.60;99.90;;;;;;4432788;32;20096;-63
2022/03/05 03:17:44;;;;;;;0.90;0.88;;;0.60;99.90;;;;;;4434912;32;20521;-63
2022/03/05 03:20:12;;;;;;;1.35;1.02;;;0.60;99.90;;;;;;4428394;32;20084;-64
2022/03/05 03:22:37;;;;;;;2.28;1.12;;;0.50;99.90;;;;;;4430910;32;20102;-63
2022/03/05 03:25:04;;;;;;;0.93;0.93;;;0.50;99.90;;;;;;4427891;32;20124;-63
2022/03/05 03:27:29;;;;;;;0.40;0.40;;;0.60;99.90;;;;;;4417150;32;20077;-63
2022/03/05 03:29:55;;;;;;;0.55;0.55;;;0.50;99.90;;;;;;4444051;32;20134;-63
2022/03/05 03:32:20;;;;;;;8.50;2.37;;;0.40;99.90;;;;;;4430101;32;20477;-63
2022/03/05 03:34:46;;;;;;;0.60;0.60;;;0.40;99.90;;;;;;4442924;32;20132;-63
2022/03/05 03:37:11;;;;;;;0.43;0.43;;;0.30;99.90;;;;;;4444381;32;20085;-63
2022/03/05 03:39:37;;;;;;;0.50;0.50;;;0.40;99.90;;;;;;4433441;32;20109;-64
2022/03/05 03:42:02;;;;;;;0.50;0.50;;;0.40;99.90;;;;;;4431550;32;20528;-63
2022/03/05 03:44:28;;;;;;;1.58;1.45;;;0.40;99.90;;;;;;4430813;32;20128;-63
2022/03/05 03:46:54;;;;;;;1.00;0.73;;;0.40;99.90;;;;;;4435651;32;20120;-63
2022/03/05 03:49:19;;;;;;;1.95;1.25;;;0.40;99.90;;;;;;4434412;32;20431;-64
2022/03/05 03:51:45;;;;;;;2.80;1.95;;;0.40;99.90;;;;;;4432937;32;20513;-63
2022/03/05 03:54:10;;;;;;;0.50;0.50;;;0.50;99.90;;;;;;4420680;32;20077;-64
2022/03/05 03:56:36;;;;;;;0.88;0.85;;;0.50;99.90;;;;;;4436253;32;20581;-63
2022/03/05 03:59:01;;;;;;;0.80;0.80;;;0.40;99.90;;;;;;4434316;32;20104;-63
2022/03/05 04:01:27;;;;;;;0.50;0.50;;;0.40;99.90;;;;;;4423130;32;20061;-64
2022/03/05 04:03:52;;;;;;;0.73;0.73;;;0.40;99.90;;;;;;4442844;32;20080;-64
2022/03/05 04:06:18;;;;;;;0.50;0.50;;;0.40;99.90;;;;;;4444096;32;20068;-64
2022/03/05 04:08:43;;;;;;;0.70;0.70;;;0.40;99.90;;;;;;4442876;32;20092;-64
2022/03/05 04:11:11;;;;;;;0.93;0.93;;;0.40;99.90;;;;;;4443076;32;20492;-64
2022/03/05 04:13:37;;;;;;;0.43;0.43;;;0.40;99.90;;;;;;4434348;32;20516;-63
2022/03/05 04:16:03;;;;;;;3.42;1.67;;;0.40;99.90;;;;;;4427874;32;20077;-63
2022/03/05 04:18:28;;;;;;;1.67;1.35;;;0.40;99.90;;;;;;4437208;32;20094;-63
2022/03/05 04:20:54;;;;;;;0.50;0.50;;;0.40;99.90;;;;;;4420805;32;20069;-63
2022/03/05 04:23:19;;;;;;;0.70;0.70;;;0.30;99.90;;;;;;4443151;32;20633;-63
2022/03/05 04:25:45;;;;;;;0.80;0.80;;;0.30;99.90;;;;;;4440939;32;20165;-63
2022/03/05 04:28:10;;;;;;;1.02;0.80;;;0.30;99.90;;;;;;4442965;32;20082;-63
2022/03/05 04:30:36;;;;;;;1.02;0.95;;;0.30;99.90;;;;;;4440256;32;20065;-63
2022/03/05 04:33:01;;;;;;;0.95;0.93;;;0.30;99.90;;;;;;4442859;32;20109;-63
2022/03/05 04:35:27;;;;;;;0.75;0.75;;;0.20;99.90;;;;;;4435234;32;20109;-63
2022/03/05 04:37:52;;;;;;;0.73;0.73;;;0.10;99.90;;;;;;4436261;32;20127;-63
2022/03/05 04:40:18;;;;;;;0.70;0.70;;;0.00;99.90;;;;;;4440662;32;20081;-63
2022/03/05 04:42:44;;;;;;;0.47;0.47;;;0.00;99.90;;;;;;4444507;32;20084;-63
2022/03/05 04:45:11;;;;;;;1.42;1.33;;;0.20;99.90;;;;;;4426753;32;20096;-63
2022/03/05 04:47:37;;;;;;;4.80;1.15;;;0.20;99.90;;;;;;4425825;32;20596;-63
2022/03/05 04:50:04;;;;;;;0.50;0.50;;;0.20;99.90;;;;;;4425921;32;21326;-63
2022/03/05 04:52:30;;;;;;;0.95;0.95;;;0.10;99.90;;;;;;4428613;32;20105;-63
2022/03/05 04:54:56;;;;;;;1.05;0.73;;;0.10;99.90;;;;;;4441391;32;20069;-63
2022/03/05 04:57:21;;;;;;;4.47;1.33;;;0.10;99.90;;;;;;4429627;32;20092;-63
2022/03/05 04:59:47;;;;;;;1.37;0.70;;;0.10;99.90;;;;;;4428175;32;20081;-63
2022/03/05 05:02:12;;;;;;;2.08;1.48;;;0.20;99.90;;;;;;4441360;32;20064;-64
2022/03/05 05:04:38;;;;;;;0.47;0.47;;;0.30;99.90;;;;;;4442117;32;20065;-63
2022/03/05 05:07:03;;;;;;;0.37;0.37;;;0.30;99.90;;;;;;4436153;32;20459;-63
2022/03/05 05:09:30;;;;;;;0.77;0.77;;;0.40;99.90;;;;;;4434699;32;20132;-63
2022/03/05 05:11:55;;;;;;;2.78;1.15;;;0.30;99.90;;;;;;4432143;32;20073;-64
2022/03/05 05:14:21;;;;;;;0.70;0.70;;;0.30;99.90;;;;;;4435969;32;20127;-63
2022/03/05 05:16:47;;;;;;;0.70;0.70;;;0.20;99.90;;;;;;4425347;32;20565;-63
2022/03/05 05:19:28;;;;;;;0.50;0.50;;;0.20;99.90;;;;;;4440863;32;20081;-63
2022/03/05 05:21:56;;;;;;;1.50;1.40;;;0.30;99.90;;;;;;4436629;32;20072;-63
2022/03/05 05:24:23;;;;;;;1.48;1.17;;;0.20;99.90;;;;;;4438388;32;20061;-64
2022/03/05 05:26:48;;;;;;;1.20;1.12;;;0.30;99.90;;;;;;4437810;32;20073;-63
2022/03/05 05:29:14;;;;;;;0.50;0.50;;;0.20;99.90;;;;;;4427415;32;20114;-63
2022/03/05 05:31:39;;;;;;;0.77;0.77;;;0.20;99.90;;;;;;4436747;32;20061;-63
2022/03/05 05:34:05;;;;;;;0.73;0.73;;;0.20;99.90;;;;;;4426319;32;20092;-64
2022/03/05 05:36:30;;;;;;;0.95;0.95;;;0.30;99.90;;;;;;4426621;32;20072;-64
2022/03/05 05:38:56;;;;;;;0.60;0.60;;;0.30;99.90;;;;;;4427091;32;20399;-63
2022/03/05 05:41:21;;;;;;;3.83;1.67;;;0.30;99.90;;;;;;4438198;32;20575;-64
2022/03/05 05:43:47;;;;;;;5.30;0.93;;;0.30;99.90;;;;;;4427188;32;20100;-63
2022/03/05 05:46:12;;;;;;;0.60;0.60;;;0.30;99.90;;;;;;4440344;32;20077;-63
2022/03/05 05:48:38;;;;;;;0.90;0.90;;;0.40;99.90;;;;;;4440185;32;20155;-63
2022/03/05 05:51:04;;;;;;;0.50;0.50;;;0.30;99.90;;;;;;4437523;32;20451;-63
2022/03/05 05:53:30;;;;;;;0.93;0.80;;;0.30;99.90;;;;;;4428682;32;20113;-64
2022/03/05 05:55:55;;;;;;;0.98;0.98;;;0.30;99.90;;;;;;4442620;32;20115;-64
2022/03/05 05:58:21;;;;;;;2.97;1.37;;;0.20;99.90;;;;;;4442817;32;20093;-63
2022/03/05 06:00:47;;;;;;;1.60;1.50;;;0.30;99.90;;;;;;4428270;32;20085;-64
2022/03/05 06:03:13;;;;;;;0.73;0.73;;;0.30;99.90;;;;;;4440545;32;20060;-64
2022/03/05 06:05:38;;;;;;;1.48;1.02;;;0.20;99.90;;;;;;4437275;32;20447;-63
2022/03/05 06:08:04;;;;;;;0.80;0.80;;;0.30;99.90;;;;;;4437006;32;20121;-65
2022/03/05 06:10:30;;;;;;;2.28;1.20;;;0.20;99.90;;;;;;4434006;32;20091;-64
2022/03/05 06:12:55;;;;;;;0.60;0.60;;;0.20;99.90;;;;;;4429598;32;20518;-65
2022/03/05 06:15:21;;;;;;;1.00;1.00;;;0.20;99.90;;;;;;4433086;32;20069;-64
2022/03/05 06:17:46;;;;;;;0.50;0.50;;;0.20;99.90;;;;;;4417936;32;20105;-64
2022/03/05 06:20:12;;;;;;;0.50;0.50;;;0.20;99.90;;;;;;4430142;32;20085;-64
2022/03/05 06:22:38;;;;;;;0.80;0.80;;;0.30;99.90;;;;;;4434769;32;20061;-64
2022/03/05 06:25:05;;;;;;;1.60;1.50;;;0.40;99.90;;;;;;4435992;32;20096;-64
2022/03/05 06:27:31;;;;;;;15.88;1.37;;;0.50;99.90;;;;;;4428544;32;20085;-64
2022/03/05 06:29:56;;;;;;;0.93;0.88;;;0.50;99.90;;;;;;4440711;32;20270;-64
2022/03/05 06:32:22;;;;;;;2.70;1.73;;;0.50;99.90;;;;;;4440875;32;20077;-64
2022/03/05 06:34:48;;;;;;;0.75;0.75;;;0.50;99.90;;;;;;4444200;32;20566;-64
2022/03/05 06:37:14;;;;;;;1.33;1.23;;;0.50;99.90;;;;;;4438483;32;20095;-64
2022/03/05 06:39:40;;;;;;;2.42;2.10;;;0.60;99.90;;;;;;4437406;32;20167;-63
2022/03/05 06:42:06;;;;;;;0.75;0.75;;;0.60;99.90;;;;;;4443990;32;20509;-63
2022/03/05 06:44:31;;;;;;;0.62;0.62;;;0.70;99.90;;;;;;4446145;32;20493;-63
2022/03/05 06:46:57;;;;;;;2.58;1.33;;;0.70;99.90;;;;;;4442286;32;20066;-63
2022/03/05 06:49:23;;;;;;;0.50;0.50;;;0.80;99.90;;;;;;4442763;32;20072;-63
2022/03/05 06:51:48;;;;;;;0.60;0.60;;;0.80;99.90;;;;;;4442549;32;20599;-63
2022/03/05 06:54:14;;;;;;;8.18;2.58;;;0.80;99.90;;;;;;4445124;32;20093;-64
2022/03/05 06:56:40;;;;;;;2.62;1.75;;;0.90;99.90;;;;;;4443000;32;20385;-63
2022/03/05 06:59:05;;;;;;;0.50;0.50;;;1.00;99.90;;;;;;4442282;32;20109;-65
2022/03/05 07:01:31;;;;;;;2.62;1.87;;;0.90;99.90;;;;;;4438247;32;20726;-64
2022/03/05 07:03:56;;;;;;;1.17;1.10;;;1.00;99.90;;;;;;4442932;32;20128;-64
2022/03/05 07:06:22;;;;;;;1.00;0.90;;;1.00;99.90;;;;;;4442597;32;20125;-64
2022/03/05 07:08:47;;;;;;;0.88;0.85;;;1.10;99.90;;;;;;4439842;32;20081;-64
2022/03/05 07:11:13;;;;;;;0.95;0.95;;;1.10;99.90;;;;;;4435421;32;20126;-64
2022/03/05 07:13:39;;;;;;;0.65;0.65;;;1.10;99.90;;;;;;4420879;32;20169;-64
2022/03/05 07:16:05;;;;;;;0.40;0.40;;;1.20;99.90;;;;;;4433314;32;20061;-64
2022/03/05 07:18:30;;;;;;;0.73;0.73;;;1.20;99.90;;;;;;4428151;32;20081;-64
2022/03/05 07:20:57;;;;;;;0.95;0.95;;;1.30;99.90;;;;;;4435344;32;20061;-64
2022/03/05 07:23:23;;;;;;;1.50;1.40;;;1.30;99.90;;;;;;4440580;32;20113;-64
2022/03/05 07:25:49;;;;;;;2.47;1.08;;;1.40;99.90;;;;;;4431737;32;20081;-64
2022/03/05 07:28:14;;;;;;;0.60;0.60;;;1.40;99.90;;;;;;4440685;32;20123;-64
2022/03/05 07:30:40;;;;;;;0.40;0.40;;;1.50;99.90;;;;;;4434337;32;20469;-64
2022/03/05 07:33:06;;;;;;;1.12;1.02;;;1.60;99.90;;;;;;4433457;32;20065;-64
2022/03/05 07:35:32;;;;;;;1.02;0.75;;;1.60;99.90;;;;;;4438956;32;109150;-64
2022/03/05 07:37:58;;;;;;;5.62;0.65;;;1.70;99.90;;;;;;4447195;32;20544;-64
2022/03/05 07:40:23;;;;;;;0.50;0.50;;;1.70;99.90;;;;;;4441642;32;20041;-64
2022/03/05 07:42:49;;;;;;;0.73;0.73;;;1.80;99.90;;;;;;4441954;32;20061;-64
2022/03/05 07:45:14;;;;;;;0.75;0.75;;;1.80;99.90;;;;;;4434498;32;20149;-64
2022/03/05 07:47:40;;;;;;;0.90;0.90;;;1.90;99.90;;;;;;4436817;32;20085;-64
2022/03/05 07:50:05;;;;;;;2.45;1.30;;;2.00;99.90;;;;;;4433129;32;20084;-64
2022/03/05 07:52:31;;;;;;;0.73;0.73;;;2.00;99.90;;;;;;4442611;32;20093;-64
2022/03/05 07:54:56;;;;;;;4.18;1.92;;;2.10;99.90;;;;;;4440946;32;20755;-64
2022/03/05 07:57:22;;;;;;;0.40;0.40;;;2.20;99.90;;;;;;4442682;32;20081;-64
2022/03/05 07:59:48;;;;;;;1.02;1.00;;;2.20;99.90;;;;;;4432426;32;20132;-64
2022/03/05 08:02:16;;;;;;;0.60;0.60;;;2.30;99.90;;;;;;4424667;32;20077;-64
2022/03/05 08:04:44;;;;;;;0.95;0.95;;;2.40;99.90;;;;;;4440299;32;20430;-64
2022/03/05 08:07:10;;;;;;;5.72;2.58;;;2.40;99.90;;;;;;4428127;32;20100;-64
2022/03/05 08:09:36;;;;;;;0.70;0.70;;;2.40;99.90;;;;;;4443297;32;20057;-64
2022/03/05 08:12:03;;;;;;;4.05;1.37;;;2.60;99.90;;;;;;4442831;32;20356;-64
2022/03/05 08:14:28;;;;;;;27.20;1.62;;;2.70;99.90;;;;;;4436825;32;20074;-64
2022/03/05 08:16:53;;;;;;;0.52;0.52;;;2.70;99.90;;;;;;4432123;32;20434;-64
2022/03/05 08:19:19;;;;;;;1.30;1.20;;;2.70;99.90;;;;;;4443492;32;20092;-64
2022/03/05 08:21:44;;;;;;;3.33;1.45;;;2.90;99.90;;;;;;4439530;32;20065;-64
2022/03/05 08:24:10;;;;;;;0.80;0.80;;;3.00;99.90;;;;;;4423512;32;20061;-64
2022/03/05 08:26:37;;;;;;;0.52;0.52;;;3.10;99.90;;;;;;4432468;32;20464;-64
2022/03/05 08:29:03;;;;;;;1.00;1.00;;;3.20;99.90;;;;;;4439710;32;20107;-64
2022/03/05 08:31:30;;;;;;;7.37;2.22;;;3.30;99.90;;;;;;4442389;32;20073;-64
2022/03/05 08:33:58;;;;;;;1.85;0.98;;;3.40;99.90;;;;;;4439708;32;20069;-64
2022/03/05 08:36:23;;;;;;;1.35;1.08;;;3.60;99.90;;;;;;4434020;32;20123;-65
2022/03/05 08:38:49;;;;;;;1.27;1.17;;;3.70;99.90;;;;;;4442371;32;20082;-64
2022/03/05 08:41:14;;;;;;;1.02;0.88;;;3.80;99.90;;;;;;4440720;32;20414;-64
2022/03/05 08:43:42;;;;;;;3.00;1.15;;;3.90;99.90;;;;;;4437877;32;20073;-64
2022/03/05 08:46:08;;;;;;;2.12;1.52;;;4.00;99.90;;;;;;4435920;32;20146;-64
2022/03/05 08:48:34;;;;;;;0.60;0.60;;;4.10;99.90;;;;;;4440218;32;20053;-64
2022/03/05 08:50:59;;;;;;;5.87;1.45;;;4.10;99.90;;;;;;4440096;32;20069;-64
2022/03/05 08:53:25;;;;;;;3.67;2.17;;;4.10;99.90;;;;;;4444307;32;20054;-64
2022/03/05 08:55:50;;;;;;;2.87;2.05;;;4.20;99.90;;;;;;4427180;32;20080;-65
2022/03/05 08:58:16;;;;;;;0.75;0.75;;;4.20;99.90;;;;;;4440951;32;20060;-65
2022/03/05 09:00:41;;;;;;;5.75;1.70;;;4.30;99.90;;;;;;4431853;32;20227;-64
2022/03/05 09:03:07;;;;;;;0.93;0.93;;;4.30;99.90;;;;;;4440715;32;20054;-65
2022/03/05 09:05:32;;;;;;;0.80;0.80;;;4.20;99.90;;;;;;4434502;32;20565;-64
2022/03/05 09:07:58;;;;;;;2.55;1.08;;;4.40;99.90;;;;;;4432606;32;20072;-64
2022/03/05 09:10:23;;;;;;;1.80;0.90;;;4.50;99.90;;;;;;4437322;32;20061;-64
2022/03/05 09:12:49;;;;;;;4.07;2.47;;;4.70;99.90;;;;;;4434843;32;20119;-64
2022/03/05 09:15:15;;;;;;;1.25;1.10;;;5.00;99.90;;;;;;4431765;32;20068;-64
2022/03/05 09:17:42;;;;;;;2.30;0.90;;;5.00;99.90;;;;;;4436503;32;20058;-64
2022/03/05 09:20:08;;;;;;;0.85;0.85;;;4.80;99.90;;;;;;4437548;32;20085;-64
2022/03/05 09:22:34;;;;;;;1.30;1.05;;;4.90;99.90;;;;;;4434934;32;20062;-64
2022/03/05 09:24:59;;;;;;;3.87;1.00;;;5.10;99.90;;;;;;4439980;32;20064;-64
2022/03/05 09:27:25;;;;;;;0.68;0.68;;;5.20;99.90;;;;;;4436802;32;20592;-65
2022/03/05 09:29:50;;;;;;;1.33;1.17;;;5.10;99.90;;;;;;4435670;32;20061;-64
2022/03/05 09:32:15;;;;;;;3.17;1.50;;;5.40;99.90;;;;;;4437498;32;20578;-64
2022/03/05 09:34:41;;;;;;;0.62;0.62;;;5.40;99.90;;;;;;4433018;32;20089;-64
2022/03/05 09:37:07;;;;;;;0.82;0.82;;;5.50;99.90;;;;;;4427674;32;20084;-64
2022/03/05 09:39:32;;;;;;;2.05;1.30;;;5.70;99.90;;;;;;4439526;32;20127;-64
2022/03/05 09:41:58;;;;;;;0.70;0.70;;;5.70;99.90;;;;;;4442422;32;20060;-64
2022/03/05 09:44:23;;;;;;;1.02;0.93;;;5.90;99.90;;;;;;4437960;32;20127;-64
2022/03/05 09:46:50;;;;;;;2.80;1.67;;;6.00;99.90;;;;;;4434556;32;20512;-64
2022/03/05 09:49:16;;;;;;;0.80;0.80;;;6.10;99.90;;;;;;4425926;32;20062;-64
2022/03/05 09:51:41;;;;;;;5.78;1.30;;;6.20;99.90;;;;;;4433496;32;20403;-65
2022/03/05 09:54:07;;;;;;;0.65;0.65;;;6.20;99.90;;;;;;4434710;32;20073;-65
2022/03/05 09:56:32;;;;;;;8.10;1.20;;;6.50;99.90;;;;;;4433031;32;20077;-64
2022/03/05 09:58:58;;;;;;;0.93;0.93;;;6.50;99.90;;;;;;4439067;32;20092;-64
2022/03/05 10:01:24;;;;;;;2.60;1.65;;;6.70;99.90;;;;;;4441058;32;20069;-64
2022/03/05 10:03:51;;;;;;;1.17;0.95;;;6.80;99.90;;;;;;4442471;32;20518;-64
2022/03/05 10:06:19;;;;;;;1.08;0.98;;;6.80;99.90;;;;;;4427669;32;20064;-64
2022/03/05 10:08:46;;;;;;;2.10;1.10;;;6.70;99.90;;;;;;4425730;32;20454;-64
2022/03/05 10:11:12;;;;;;;4.03;1.25;;;6.50;99.90;;;;;;4415150;32;20078;-64
2022/03/05 10:13:39;;;;;;;1.75;1.05;;;6.80;99.90;;;;;;4416793;32;20070;-64
2022/03/05 10:16:20;;;;;;;3.20;2.15;;;6.80;99.90;;;;;;4429029;32;20077;-64
2022/03/05 10:18:46;;;;;;;;;;;6.80;99.90;;;;;;4426599;32;20077;-64
2022/03/05 10:21:12;;;;;;;1.25;1.15;;;6.90;99.90;;;;;;4425716;32;19941;-64
2022/03/05 10:23:42;;;;;;;27.40;1.40;;;7.00;99.90;;;;;;4427570;32;20123;-63
2022/03/05 10:26:08;;;;;;;1.15;0.98;;;7.20;99.90;;;;;;4420550;32;20142;-64
2022/03/05 10:28:37;;;;;;;4.22;1.67;;;7.30;99.90;;;;;;4436169;32;20045;-64
2022/03/05 10:31:07;;;;;;;1.12;0.90;;;7.30;99.90;;;;;;4425986;32;20077;-64
2022/03/05 10:33:37;;;;;;;8.55;2.50;;;7.70;99.90;;;;;;4427053;32;20072;-64
2022/03/05 10:36:09;;;;;;;2.20;1.33;;;7.50;99.90;;;;;;4439023;32;20094;-64
2022/03/05 10:38:45;;;;;;;1.20;0.95;;;7.50;99.90;;;;;;4439596;32;20061;-64
2022/03/05 10:41:12;;;;;;;7.28;1.20;;;7.40;99.90;;;;;;4438795;32;20124;-63
2022/03/05 10:43:38;;;;;;;2.87;1.55;;;7.60;99.90;;;;;;4427828;32;20073;-63
2022/03/05 10:46:03;;;;;;;1.65;1.37;;;7.60;99.90;;;;;;4434483;32;20061;-63
2022/03/05 10:48:31;;;;;;;1.83;1.33;;;7.40;99.90;;;;;;4438259;32;20209;-63
2022/03/05 10:51:02;;;;;;;0.75;0.73;;;7.00;99.90;;;;;;4432275;32;20093;-64
2022/03/05 10:53:46;;;;;;;3.50;1.83;;;6.80;99.90;;;;;;4439272;32;20061;-64
2022/03/05 10:56:30;;;;;;;0.98;0.90;;;6.60;99.90;;;;;;4422770;32;20432;-63
2022/03/05 10:59:00;;;;;;;0.65;0.65;;;6.90;99.90;;;;;;4424609;32;20394;-64
2022/03/05 11:01:26;;;;;;;0.77;0.77;;;6.70;99.90;;;;;;4433483;32;20061;-63
2022/03/05 11:03:53;;;;;;;3.40;1.00;;;6.50;99.90;;;;;;4436053;32;20077;-63
2022/03/05 11:06:20;;;;;;;0.50;0.50;;;6.50;99.90;;;;;;4426606;32;20073;-63
2022/03/05 11:08:46;;;;;;;0.77;0.77;;;6.40;99.90;;;;;;4426020;32;20057;-64
2022/03/05 11:11:14;;;;;;;3.72;1.50;;;6.40;99.90;;;;;;4412853;32;20112;-63
2022/03/05 11:13:41;;;;;;;0.70;0.70;;;6.60;99.90;;;;;;4435961;32;20123;-63
2022/03/05 11:16:06;;;;;;;4.85;1.27;;;7.00;99.90;;;;;;4425460;32;20115;-62
2022/03/05 11:18:32;;;;;;;0.90;0.90;;;7.30;99.90;;;;;;4441200;32;20320;-63
2022/03/05 11:21:00;;;;;;;0.80;0.80;;;7.40;99.90;;;;;;4438882;32;20081;-63
2022/03/05 11:23:26;;;;;;;1.15;0.98;;;7.80;99.90;;;;;;4441561;32;20053;-63
2022/03/05 11:25:53;;;;;;;3.15;1.27;;;8.30;99.90;;;;;;4437719;32;20078;-63
2022/03/05 11:28:19;;;;;;;1.00;1.00;;;8.90;99.90;;;;;;4427549;32;20112;-63
2022/03/05 11:30:45;;;;;;;1.25;0.82;;;8.90;99.90;;;;;;4416399;32;20605;-65
2022/03/05 11:33:12;;;;;;;0.98;0.90;;;9.10;99.90;;;;;;4430616;32;20070;-64
2022/03/05 11:35:43;;;;;;;1.80;1.08;;;9.40;99.90;;;;;;4439855;32;20505;-63
2022/03/05 11:38:28;;;;;;;;;;;9.70;99.90;;;;;;4430095;32;20172;-64
2022/03/05 11:40:54;;;;;;;0.55;0.55;;;9.90;98.50;;;;;;4428108;32;19953;-65
2022/03/05 11:43:22;;;;;;;0.80;0.80;;;9.90;99.20;;;;;;4432893;32;20583;-65
2022/03/05 11:45:58;;;;;;;1.77;0.95;;;10.00;98.40;;;;;;4420855;32;20143;-64
2022/03/05 11:48:25;;;;;;;0.60;0.60;;;10.00;98.60;;;;;;4434451;32;20077;-64
2022/03/05 11:50:52;;;;;;;0.80;0.80;;;9.70;98.00;;;;;;4420096;32;20080;-66
2022/03/05 11:53:18;;;;;;;1.02;0.90;;;9.80;97.00;;;;;;4419178;32;20120;-64
2022/03/05 11:55:46;;;;;;;1.20;1.10;;;10.00;97.80;;;;;;4438284;32;20061;-65
2022/03/05 11:58:15;;;;;;;1.12;1.02;;;10.10;98.10;;;;;;4431827;32;20093;-65
2022/03/05 12:00:41;;;;;;;8.32;2.10;;;10.20;97.80;;;;;;4437336;32;20073;-64
2022/03/05 12:03:07;;;;;;;0.82;0.82;;;10.00;98.10;;;;;;4419411;32;20061;-64
2022/03/05 12:05:44;;;;;;;0.68;0.68;;;10.20;96.00;;;;;;4437066;32;20139;-64
2022/03/05 12:08:12;;;;;;;0.98;0.98;;;10.40;96.30;;;;;;4432336;32;20570;-63
2022/03/05 12:10:39;;;;;;;0.70;0.70;;;10.70;95.40;;;;;;4423618;32;20120;-64
2022/03/05 12:13:07;;;;;;;1.17;1.08;;;11.30;94.10;;;;;;4426301;32;20444;-63
2022/03/05 12:15:34;;;;;;;0.70;0.62;;;11.30;93.40;;;;;;4445838;32;20098;-63
2022/03/05 12:18:01;;;;;;;0.95;0.85;;;11.50;93.60;;;;;;4442612;32;20085;-64
2022/03/05 12:20:32;;;;;;;0.90;0.80;;;11.30;93.50;;;;;;4438320;32;20157;-63
2022/03/05 12:23:01;;;;;;;1.33;1.25;;;11.40;92.50;;;;;;4427665;32;20072;-64
2022/03/05 12:25:29;;;;;;;1.70;1.55;;;12.20;92.30;;;;;;4442175;32;20091;-66
2022/03/05 12:27:56;;;;;;;1.00;0.93;;;12.20;91.80;;;;;;4429040;32;20468;-63
2022/03/05 12:30:24;;;;;;;0.95;0.80;;;12.10;91.80;;;;;;4428391;32;20068;-64
2022/03/05 12:32:52;;;;;;;0.70;0.70;;;11.90;91.60;;;;;;4421887;32;20065;-63
2022/03/05 12:35:18;;;;;;;0.57;0.57;;;12.10;91.80;;;;;;4427604;32;20078;-64
2022/03/05 12:37:44;;;;;;;0.70;0.70;;;11.80;91.50;;;;;;4427283;32;20065;-63
2022/03/05 12:40:12;;;;;;;1.67;1.20;;;11.40;91.80;;;;;;4427438;32;20076;-63
2022/03/05 12:42:42;;;;;;;1.10;1.02;;;10.80;91.80;;;;;;4415346;32;20402;-64
2022/03/05 12:45:13;;;;;;;;;;;10.20;93.60;;;;;;4426082;32;20078;-64
2022/03/05 12:47:38;;;;;;;1.00;0.90;;;9.90;94.10;;;;;;4439799;32;20070;-64
2022/03/05 12:50:27;;;;;;;0.70;0.70;;;9.50;94.60;;;;;;4433480;32;20497;-64
2022/03/05 12:52:54;;;;;;;1.45;0.70;;;8.90;95.40;;;;;;4428949;32;20070;-64